Kilfoil, Nebraska
Current Conditions -  °F | °C
As of 3:53 PM on Thursday 27 Nov 2014 (Local Time) from KBBW Reporting Station
Clear Clear  
Wind Chill: 34°   Ceiling: Unl
Heat Index: 43°   Visibility: 10mi
Dew Point: 22°   Wind: 21mph
Humidity: 43%   Direction: 180°S
Pressure: 30.07"   Gusts: NA
Location:  41.3933°N, 99.8458°W
Report Text: KBBW 272153Z AUTO 18018KT 10SM CLR 06/M06 A3007 RMK AO2 SLP202 T00611056
Loading
Personal Weather Stations






























Interactive Weather Map New forecast layout! Learn more

10-Day Weather Forecast

Advertisements
Track Severe Weather on mobile